createdAt,value
2023-04-28T00:01:41.965Z,97218.38
2023-04-28T00:04:08.966Z,97221.03
2023-04-28T00:06:35.984Z,97214.06
2023-04-28T00:09:03.633Z,97205.25
2023-04-28T00:11:30.337Z,97216.88
2023-04-28T00:13:57.066Z,97203.75
2023-04-28T00:16:24.366Z,97211.88
2023-04-28T00:18:51.564Z,97212.88
2023-04-28T00:21:18.299Z,97204.91
2023-04-28T00:23:45.084Z,97206.72
2023-04-28T00:26:12.592Z,97209.56
2023-04-28T00:28:39.348Z,97202.75
2023-04-28T00:31:13.369Z,97195.75
2023-04-28T00:33:41.214Z,97199.41
2023-04-28T00:36:08.397Z,97192.28
2023-04-28T00:38:35.260Z,97189.13
2023-04-28T00:41:02.004Z,97189.13
2023-04-28T00:43:29.272Z,97187.44
2023-04-28T00:45:56.223Z,97192.06
2023-04-28T00:48:24.369Z,97187.75
2023-04-28T00:50:52.103Z,97187.75
2023-04-28T00:53:18.823Z,97195.88
2023-04-28T00:55:46.565Z,97195.88
2023-04-28T00:58:13.397Z,97187.25
2023-04-28T01:00:40.793Z,97186.41
2023-04-28T01:03:08.210Z,97180.25
2023-04-28T01:05:36.792Z,97167.97
2023-04-28T01:08:03.663Z,97168.13
2023-04-28T01:10:30.341Z,97168.13
2023-04-28T01:12:57.076Z,97163.16
2023-04-28T01:15:23.844Z,97160.50
2023-04-28T01:17:51.061Z,97155.50
2023-04-28T01:20:18.091Z,97154.50
2023-04-28T01:22:44.905Z,97149.19
2023-04-28T01:25:11.695Z,97149.34
2023-04-28T01:27:38.435Z,97153.00
2023-04-28T01:30:05.960Z,97149.53
2023-04-28T01:32:32.795Z,97145.41
2023-04-28T01:34:59.513Z,97145.41
2023-04-28T01:37:26.283Z,97151.72
2023-04-28T01:39:52.997Z,97153.53
2023-04-28T01:42:19.730Z,97149.22
2023-04-28T01:44:46.467Z,97146.56
2023-04-28T01:47:13.206Z,97151.88
2023-04-28T01:49:40.040Z,97151.22
2023-04-28T01:52:07.074Z,97142.56
2023-04-28T01:54:33.839Z,97139.75
2023-04-28T01:57:00.629Z,97151.38
2023-04-28T01:59:27.575Z,97141.75
2023-04-28T02:01:54.302Z,97138.41
2023-04-28T02:04:21.214Z,97137.59
2023-04-28T02:06:47.959Z,97132.59
2023-04-28T02:09:14.667Z,97135.25
2023-04-28T02:11:41.384Z,97136.25
2023-04-28T02:14:08.303Z,97136.25
2023-04-28T02:16:35.049Z,97132.94
2023-04-28T02:19:01.930Z,97138.25
2023-04-28T02:21:28.760Z,97136.56
2023-04-28T02:23:55.574Z,97137.56
2023-04-28T02:26:23.073Z,97134.75
2023-04-28T02:28:49.873Z,97132.25
2023-04-28T02:31:17.219Z,97137.72
2023-04-28T02:33:44.023Z,97139.56
2023-04-28T02:36:11.269Z,97142.22
2023-04-28T02:38:38.001Z,97134.56
2023-04-28T02:41:06.661Z,97142.53
2023-04-28T02:43:34.303Z,97144.53
2023-04-28T02:46:02.454Z,97134.72
2023-04-28T02:48:29.277Z,97141.69
2023-04-28T02:50:56.132Z,97132.25
2023-04-28T02:53:23.451Z,97132.25
2023-04-28T02:55:50.178Z,97137.72
2023-04-28T02:58:18.435Z,97117.47
2023-04-28T03:00:45.995Z,97124.75
2023-04-28T03:03:13.281Z,97134.38
2023-04-28T03:05:40.231Z,97117.78
2023-04-28T03:08:07.116Z,97097.53
2023-04-28T03:10:33.841Z,97100.34
2023-04-28T03:13:00.593Z,97098.69
2023-04-28T03:15:27.510Z,97111.31
2023-04-28T03:17:54.341Z,97114.63
2023-04-28T03:20:21.255Z,97096.34
2023-04-28T03:22:48.006Z,97091.06
2023-04-28T03:25:14.738Z,97081.41
2023-04-28T03:27:41.478Z,97074.63
2023-04-28T03:30:08.643Z,97078.09
2023-04-28T03:32:35.578Z,97064.31
2023-04-28T03:35:02.414Z,97059.50
2023-04-28T03:37:29.139Z,97062.34
2023-04-28T03:39:56.042Z,97059.84
2023-04-28T03:42:22.700Z,97057.34
2023-04-28T03:44:49.379Z,97049.53
2023-04-28T03:47:16.103Z,97045.41
2023-04-28T03:49:42.804Z,97039.09
2023-04-28T03:52:09.537Z,97048.88
2023-04-28T03:54:36.408Z,97061.31
2023-04-28T03:57:04.781Z,97064.81
2023-04-28T03:59:31.469Z,97068.47
2023-04-28T04:01:58.351Z,97073.09
2023-04-28T04:04:25.551Z,97070.59
2023-04-28T04:06:52.918Z,97074.25
2023-04-28T04:09:19.694Z,97077.91
2023-04-28T04:11:46.743Z,97061.16
2023-04-28T04:14:13.566Z,97057.97
2023-04-28T04:16:41.352Z,97049.84
2023-04-28T04:19:08.106Z,97061.47
2023-04-28T04:21:34.832Z,97069.28
2023-04-28T04:24:01.620Z,97059.66
2023-04-28T04:26:28.316Z,97059.81
2023-04-28T04:28:55.034Z,97066.78
2023-04-28T04:31:22.882Z,97052.84
2023-04-28T04:33:50.005Z,97057.47
2023-04-28T04:36:16.974Z,97050.34
2023-04-28T04:38:43.693Z,97041.72
2023-04-28T04:41:13.990Z,97049.50
2023-04-28T04:43:40.694Z,97046.03
2023-04-28T04:46:07.742Z,97058.47
2023-04-28T04:48:34.933Z,97057.81
2023-04-28T04:51:04.673Z,97051.00
2023-04-28T04:53:31.693Z,97042.03
2023-04-28T04:55:58.553Z,97039.53
2023-04-28T04:58:25.340Z,97044.03
2023-04-28T05:00:52.135Z,97039.22
2023-04-28T05:03:19.104Z,97036.72
2023-04-28T05:05:47.628Z,97033.25
2023-04-28T05:08:14.444Z,97038.56
2023-04-28T05:10:41.504Z,97035.19
2023-04-28T05:13:08.450Z,97034.25
2023-04-28T05:15:35.284Z,97046.69
2023-04-28T05:18:08.046Z,97031.88
2023-04-28T05:20:35.235Z,97019.44
2023-04-28T05:23:02.973Z,97014.13
2023-04-28T05:25:29.993Z,97020.28
2023-04-28T05:27:56.797Z,97023.09
2023-04-28T05:30:23.472Z,97012.66
2023-04-28T05:32:50.258Z,97010.34
2023-04-28T05:35:17.771Z,97018.97
2023-04-28T05:37:45.298Z,97024.44
2023-04-28T05:40:12.143Z,97004.19
2023-04-28T05:42:38.961Z,97019.13
2023-04-28T05:45:07.059Z,97023.59
2023-04-28T05:47:33.896Z,97020.94
2023-04-28T05:50:00.613Z,97025.44
2023-04-28T05:52:27.746Z,97029.06
2023-04-28T05:54:54.483Z,97026.25
2023-04-28T05:57:21.241Z,97028.09
2023-04-28T05:59:48.039Z,97023.75
2023-04-28T06:02:14.816Z,97020.28
2023-04-28T06:04:41.926Z,97033.88
2023-04-28T06:07:08.874Z,97031.22
2023-04-28T06:09:36.062Z,97026.91
2023-04-28T06:12:04.193Z,97033.88
2023-04-28T06:14:30.938Z,97032.03
2023-04-28T06:16:57.665Z,97041.66
2023-04-28T06:19:24.375Z,97036.38
2023-04-28T06:21:52.918Z,97035.53
2023-04-28T06:24:19.672Z,97033.72
2023-04-28T06:26:47.405Z,97032.88
2023-04-28T06:29:15.031Z,97035.53
2023-04-28T06:31:41.782Z,97048.13
2023-04-28T06:34:08.638Z,97050.13
2023-04-28T06:36:35.653Z,97045.63
2023-04-28T06:39:02.743Z,97042.00
2023-04-28T06:41:29.549Z,97054.44
2023-04-28T06:43:56.474Z,97049.13
2023-04-28T06:46:23.299Z,97047.63
2023-04-28T06:48:50.005Z,97058.91
2023-04-28T06:51:16.819Z,97069.53
2023-04-28T06:53:43.590Z,97068.53
2023-04-28T06:56:11.587Z,97071.03
2023-04-28T06:58:38.896Z,97080.13
2023-04-28T07:01:06.090Z,97079.97
2023-04-28T07:03:33.353Z,97079.97
2023-04-28T07:06:00.692Z,97077.16
2023-04-28T07:08:27.844Z,97070.19
2023-04-28T07:10:54.632Z,97072.00
2023-04-28T07:13:21.481Z,97063.22
2023-04-28T07:15:48.233Z,97061.41
2023-04-28T07:18:15.184Z,97052.59
2023-04-28T07:20:41.910Z,97046.47
2023-04-28T07:23:08.672Z,97052.28
2023-04-28T07:25:36.544Z,97050.78
2023-04-28T07:28:04.241Z,97058.75
2023-04-28T07:30:30.911Z,97051.63
2023-04-28T07:32:58.786Z,97054.44
2023-04-28T07:35:26.178Z,97051.63
2023-04-28T07:37:56.198Z,97047.31
2023-04-28T07:40:23.054Z,97050.13
2023-04-28T07:42:50.330Z,97049.44
2023-04-28T07:45:17.117Z,97045.97
2023-04-28T07:47:43.868Z,97044.31
2023-04-28T07:50:12.131Z,97040.16
2023-04-28T07:52:39.785Z,97042.78
2023-04-28T07:55:07.231Z,97044.13
2023-04-28T07:57:34.002Z,97033.69
2023-04-28T08:00:00.755Z,97032.69
2023-04-28T08:02:27.775Z,97029.88
2023-04-28T08:04:54.807Z,97020.94
2023-04-28T08:07:21.740Z,97020.78
2023-04-28T08:09:48.614Z,97023.41
2023-04-28T08:12:15.794Z,97027.91
2023-04-28T08:14:42.839Z,97021.59
2023-04-28T08:17:09.715Z,97011.97
2023-04-28T08:19:36.584Z,97022.25
2023-04-28T08:22:06.282Z,97022.94
2023-04-28T08:24:36.777Z,97020.28
2023-04-28T08:27:04.429Z,97002.03
2023-04-28T08:29:32.708Z,97011.97
2023-04-28T08:31:59.864Z,97010.00
2023-04-28T08:34:26.539Z,97009.16
2023-04-28T08:36:54.482Z,97011.81
2023-04-28T08:39:24.744Z,97010.81
2023-04-28T08:41:58.685Z,97012.81
2023-04-28T08:44:25.594Z,97007.34
2023-04-28T08:46:56.870Z,96998.38
2023-04-28T08:49:31.859Z,97008.00
2023-04-28T08:52:00.477Z,97004.69
2023-04-28T08:54:32.100Z,97007.34
2023-04-28T08:56:59.437Z,96999.38
2023-04-28T08:59:26.620Z,97003.69
2023-04-28T09:01:53.624Z,97001.88
2023-04-28T09:04:21.485Z,96995.72
2023-04-28T09:06:49.065Z,97002.69
2023-04-28T09:09:25.509Z,96994.91
2023-04-28T09:11:53.883Z,96983.28
2023-04-28T09:14:20.707Z,96989.44
2023-04-28T09:16:47.635Z,96981.47
2023-04-28T09:19:16.043Z,96975.16
2023-04-28T09:21:53.605Z,96977.00
2023-04-28T09:24:37.149Z,96981.47
2023-04-28T09:27:07.877Z,96973.50
2023-04-28T09:29:34.653Z,96970.84
2023-04-28T09:32:18.960Z,96966.22
2023-04-28T09:34:48.121Z,96967.88
2023-04-28T09:37:17.082Z,96972.34
2023-04-28T09:39:49.698Z,96973.19
2023-04-28T09:42:45.196Z,96962.56
2023-04-28T09:45:13.825Z,96967.88
2023-04-28T09:47:43.060Z,96962.56
2023-04-28T09:50:15.290Z,96972.34
2023-04-28T09:52:44.448Z,96975.16
2023-04-28T09:55:12.660Z,96962.91
2023-04-28T09:57:40.717Z,96976.00
2023-04-28T10:00:09.646Z,96974.19
2023-04-28T10:05:13.346Z,96974.34
2023-04-28T10:07:40.983Z,96981.31
2023-04-28T10:10:08.678Z,96969.88
2023-04-28T10:12:39.369Z,96974.34
2023-04-28T10:15:09.888Z,96976.16
2023-04-28T10:17:37.372Z,96971.84
2023-04-28T10:20:05.657Z,96970.69
2023-04-28T10:23:04.323Z,96956.59
2023-04-28T10:25:42.410Z,96961.06
2023-04-28T10:28:09.744Z,96965.38
2023-04-28T10:30:39.684Z,96966.22
2023-04-28T10:33:06.902Z,96950.97
2023-04-28T10:35:36.498Z,96946.78
2023-04-28T10:38:06.023Z,96948.47
2023-04-28T10:40:34.434Z,96939.66
2023-04-28T10:43:01.702Z,96937.69
2023-04-28T10:45:56.533Z,96928.75
2023-04-28T10:48:46.856Z,96931.25
2023-04-28T10:51:16.899Z,96925.94
2023-04-28T10:53:44.297Z,96927.75
2023-04-28T10:56:27.943Z,96934.22
2023-04-28T10:58:56.342Z,96931.56
2023-04-28T11:01:25.112Z,96925.44
2023-04-28T11:04:07.646Z,96921.63
2023-04-28T11:07:09.602Z,96918.78
2023-04-28T11:09:36.438Z,96914.31
2023-04-28T11:12:08.146Z,96910.16
2023-04-28T11:14:36.726Z,96926.25
2023-04-28T11:17:08.716Z,96905.19
2023-04-28T11:19:37.957Z,96911.50
2023-04-28T11:22:22.173Z,96917.81
2023-04-28T11:25:00.276Z,96916.81
2023-04-28T11:27:28.533Z,96902.88
2023-04-28T11:29:56.043Z,96899.38
2023-04-28T11:32:30.016Z,96907.34
2023-04-28T11:34:56.996Z,96905.34
2023-04-28T11:37:24.036Z,96917.47
2023-04-28T11:39:51.275Z,96913.81
2023-04-28T11:42:18.010Z,96917.97
2023-04-28T11:44:55.598Z,96907.50
2023-04-28T11:47:33.669Z,96905.19
2023-04-28T11:50:01.849Z,96903.19
2023-04-28T11:52:28.817Z,96901.03
2023-04-28T11:55:02.416Z,96913.31
2023-04-28T11:57:29.508Z,96913.97
2023-04-28T12:00:19.929Z,96912.81
2023-04-28T12:02:47.175Z,96913.47
2023-04-28T12:05:14.077Z,96909.34
2023-04-28T12:07:43.391Z,96904.19
2023-04-28T12:10:12.537Z,96903.84
2023-04-28T12:12:50.971Z,96915.81
2023-04-28T12:15:22.977Z,96917.28
2023-04-28T12:17:51.275Z,96900.53
2023-04-28T12:20:38.265Z,96900.53
2023-04-28T12:23:05.812Z,96908.66
2023-04-28T12:25:34.173Z,96907.84
2023-04-28T12:28:05.729Z,96897.22
2023-04-28T12:30:42.770Z,96906.00
2023-04-28T12:33:26.404Z,96907.34
2023-04-28T12:35:55.504Z,96903.19
2023-04-28T12:38:23.173Z,96899.88
2023-04-28T12:40:50.014Z,96901.69
2023-04-28T12:43:16.729Z,96900.88
2023-04-28T12:45:43.594Z,96902.34
2023-04-28T12:48:10.435Z,96899.53
2023-04-28T12:50:37.886Z,96902.19
2023-04-28T12:53:05.191Z,96899.88
2023-04-28T12:55:31.971Z,96906.19
2023-04-28T12:57:59.576Z,96903.53
2023-04-28T13:00:26.668Z,96896.56
2023-04-28T13:02:53.551Z,96899.03
2023-04-28T13:05:20.381Z,96902.34
2023-04-28T13:07:47.937Z,96897.88
2023-04-28T13:10:14.728Z,96903.19
2023-04-28T13:12:41.736Z,96901.38
2023-04-28T13:15:09.147Z,96892.56
2023-04-28T13:17:35.983Z,96904.03
2023-04-28T13:20:04.061Z,96901.19
2023-04-28T13:22:30.810Z,96897.72
2023-04-28T13:24:57.864Z,96890.25
2023-04-28T13:27:24.684Z,96885.75
2023-04-28T13:29:51.596Z,96892.06
2023-04-28T13:32:18.424Z,96886.75
2023-04-28T13:34:45.536Z,96894.56
2023-04-28T13:37:12.518Z,96879.63
2023-04-28T13:39:39.318Z,96885.75
2023-04-28T13:42:07.158Z,96890.25
2023-04-28T13:44:33.949Z,96887.59
2023-04-28T13:47:01.032Z,96886.75
2023-04-28T13:49:28.245Z,96886.75
2023-04-28T13:51:54.978Z,96881.28
2023-04-28T13:54:22.000Z,96881.59
2023-04-28T13:56:48.882Z,96879.78
2023-04-28T13:59:15.790Z,96876.94
2023-04-28T14:01:42.613Z,96870.81
2023-04-28T14:04:09.671Z,96876.94
2023-04-28T14:06:37.491Z,96873.47
2023-04-28T14:09:04.563Z,96875.94
2023-04-28T14:11:31.302Z,96869.97
2023-04-28T14:13:58.000Z,96871.63
2023-04-28T14:16:24.794Z,96880.25
2023-04-28T14:18:51.958Z,96869.47
2023-04-28T14:21:18.877Z,96867.63
2023-04-28T14:23:45.880Z,96866.97
2023-04-28T14:26:12.587Z,96872.94
2023-04-28T14:28:39.412Z,96872.28
2023-04-28T14:31:09.051Z,96871.28
2023-04-28T14:33:36.950Z,96869.63
2023-04-28T14:36:04.344Z,96871.28
2023-04-28T14:38:31.921Z,96871.28
2023-04-28T14:40:58.666Z,96876.59
2023-04-28T14:43:25.860Z,96864.16
2023-04-28T14:45:53.192Z,96870.47
2023-04-28T14:48:20.567Z,96868.81
2023-04-28T14:50:47.830Z,96869.63
2023-04-28T14:53:14.857Z,96871.47
2023-04-28T14:55:41.658Z,96869.63
2023-04-28T14:58:08.418Z,96873.94
2023-04-28T15:00:35.779Z,96878.25
2023-04-28T15:03:04.302Z,96867.63
2023-04-28T15:05:31.253Z,96865.81
2023-04-28T15:07:58.377Z,96862.00
2023-04-28T15:10:25.494Z,96847.38
2023-04-28T15:12:52.360Z,96836.06
2023-04-28T15:15:19.058Z,96839.31
2023-04-28T15:17:46.066Z,96840.63
2023-04-28T15:20:12.889Z,96828.16
2023-04-28T15:22:39.646Z,96828.81
2023-04-28T15:25:07.067Z,96839.94
2023-04-28T15:27:33.831Z,96833.28
2023-04-28T15:30:00.613Z,96827.97
2023-04-28T15:32:30.355Z,96823.47
2023-04-28T15:34:57.691Z,96814.66
2023-04-28T15:37:43.911Z,96813.19
2023-04-28T15:40:12.903Z,96804.44
2023-04-28T15:42:42.288Z,96811.25
2023-04-28T15:45:10.666Z,96806.16
2023-04-28T15:47:39.445Z,96802.19
2023-04-28T15:50:08.646Z,96801.19
2023-04-28T15:52:38.026Z,96806.50
2023-04-28T15:55:05.183Z,96815.13
2023-04-28T15:57:31.900Z,96817.78
2023-04-28T15:59:58.587Z,96814.13
2023-04-28T16:02:25.778Z,96815.75
2023-04-28T16:04:52.991Z,96830.69
2023-04-28T16:07:20.289Z,96828.84
2023-04-28T16:09:47.035Z,96823.38
2023-04-28T16:12:13.819Z,96820.72
2023-04-28T16:14:40.513Z,96827.69
2023-04-28T16:17:07.723Z,96826.84
2023-04-28T16:19:34.624Z,96830.34
2023-04-28T16:22:01.667Z,96833.00
2023-04-28T16:24:29.236Z,96831.16
2023-04-28T16:26:56.095Z,96832.16
2023-04-28T16:29:23.957Z,96828.84
2023-04-28T16:31:50.734Z,96837.00
2023-04-28T16:34:19.507Z,96841.13
2023-04-28T16:36:46.580Z,96850.78
2023-04-28T16:39:13.702Z,96838.47
2023-04-28T16:41:40.399Z,96857.09
2023-04-28T16:44:08.371Z,96857.91
2023-04-28T16:46:35.184Z,96856.91
2023-04-28T16:49:01.924Z,96857.91
2023-04-28T16:51:28.656Z,96856.91
2023-04-28T16:53:55.495Z,96851.59
2023-04-28T16:56:22.211Z,96864.88
2023-04-28T16:58:48.967Z,96857.91
2023-04-28T17:01:15.790Z,96851.59
2023-04-28T17:03:43.054Z,96850.59
2023-04-28T17:06:10.055Z,96861.22
2023-04-28T17:08:37.989Z,96868.53
2023-04-28T17:11:05.072Z,96872.19
2023-04-28T17:13:33.141Z,96875.69
2023-04-28T17:16:00.497Z,96858.25
2023-04-28T17:18:27.578Z,96851.94
2023-04-28T17:20:54.689Z,96857.25
2023-04-28T17:23:22.049Z,96855.44
2023-04-28T17:25:48.864Z,96850.13
2023-04-28T17:28:15.736Z,96857.25
2023-04-28T17:30:46.910Z,96865.22
2023-04-28T17:33:14.214Z,96867.25
2023-04-28T17:35:40.952Z,96866.44
2023-04-28T17:38:07.775Z,96868.88
2023-04-28T17:40:34.479Z,96864.41
2023-04-28T17:43:01.271Z,96855.59
2023-04-28T17:45:28.078Z,96860.91
2023-04-28T17:47:56.515Z,96860.91
2023-04-28T17:50:23.827Z,96866.44
2023-04-28T17:52:50.615Z,96866.44
2023-04-28T17:55:17.845Z,96869.91
2023-04-28T17:57:44.971Z,96862.75
2023-04-28T18:00:13.406Z,96876.03
2023-04-28T18:02:40.314Z,96884.81
2023-04-28T18:05:07.898Z,96883.19
2023-04-28T18:07:34.666Z,96891.97
2023-04-28T18:10:01.838Z,96898.09
2023-04-28T18:12:28.551Z,96913.22
2023-04-28T18:14:55.590Z,96916.72
2023-04-28T18:17:23.497Z,96915.25
2023-04-28T18:19:52.452Z,96915.41
2023-04-28T18:22:19.229Z,96921.72
2023-04-28T18:24:46.319Z,96915.75
2023-04-28T18:27:13.049Z,96914.75
2023-04-28T18:29:39.896Z,96910.94
2023-04-28T18:32:07.019Z,96893.69
2023-04-28T18:34:33.872Z,96875.41
2023-04-28T18:37:00.571Z,96863.13
2023-04-28T18:39:27.658Z,96867.59
2023-04-28T18:41:54.390Z,96869.91
2023-04-28T18:44:21.163Z,96855.31
2023-04-28T18:46:47.975Z,96817.63
2023-04-28T18:49:14.874Z,96824.78
2023-04-28T18:51:41.675Z,96844.69
2023-04-28T18:54:08.587Z,96853.66
2023-04-28T18:56:36.221Z,96860.63
2023-04-28T18:59:06.145Z,96870.25
2023-04-28T19:01:32.907Z,96871.25
2023-04-28T19:03:59.822Z,96879.41
2023-04-28T19:06:27.355Z,96865.94
2023-04-28T19:08:54.578Z,96865.94
2023-04-28T19:11:21.326Z,96866.78
2023-04-28T19:13:48.111Z,96855.66
2023-04-28T19:16:15.014Z,96863.44
2023-04-28T19:18:42.366Z,96876.56
2023-04-28T19:21:12.255Z,96863.44
2023-04-28T19:23:41.930Z,96863.28
2023-04-28T19:26:09.696Z,96855.31
2023-04-28T19:28:36.862Z,96865.94
2023-04-28T19:31:04.515Z,96853.66
2023-04-28T19:33:31.309Z,96856.31
2023-04-28T19:36:00.105Z,96872.91
2023-04-28T19:38:27.040Z,96873.09
2023-04-28T19:41:04.502Z,96884.53
2023-04-28T19:43:31.659Z,96876.56
2023-04-28T19:45:58.643Z,96876.75
2023-04-28T19:48:26.359Z,96890.69
2023-04-28T19:50:53.160Z,96887.19
2023-04-28T19:53:19.883Z,96894.16
2023-04-28T19:55:46.784Z,96901.47
2023-04-28T19:58:14.126Z,96908.44
2023-04-28T20:00:40.958Z,96908.63
2023-04-28T20:03:08.589Z,96908.78
2023-04-28T20:05:38.147Z,96903.31
2023-04-28T20:08:05.008Z,96903.47
2023-04-28T20:10:32.008Z,96900.81
2023-04-28T20:12:58.692Z,96906.63
2023-04-28T20:15:25.630Z,96908.13
2023-04-28T20:17:52.355Z,96919.41
2023-04-28T20:20:19.278Z,96916.59
2023-04-28T20:22:48.915Z,96922.06
2023-04-28T20:25:15.823Z,96923.72
2023-04-28T20:27:44.346Z,96923.06
2023-04-28T20:30:11.333Z,96919.75
2023-04-28T20:32:38.809Z,96923.41
2023-04-28T20:35:06.406Z,96928.88
2023-04-28T20:37:33.466Z,96930.72
2023-04-28T20:40:00.208Z,96938.84
2023-04-28T20:42:28.195Z,96940.34
2023-04-28T20:44:55.011Z,96932.38
2023-04-28T20:47:21.911Z,96935.69
2023-04-28T20:49:48.869Z,96933.19
2023-04-28T20:52:15.798Z,96935.84
2023-04-28T20:54:43.940Z,96946.66
2023-04-28T20:57:11.431Z,96946.31
2023-04-28T20:59:38.196Z,96948.31
2023-04-28T21:02:05.080Z,96943.00
2023-04-28T21:04:31.871Z,96940.69
2023-04-28T21:06:58.745Z,96944.00
2023-04-28T21:09:25.618Z,96935.84
2023-04-28T21:11:52.922Z,96934.03
2023-04-28T21:14:19.655Z,96943.81
2023-04-28T21:16:46.483Z,96935.84
2023-04-28T21:19:13.296Z,96943.00
2023-04-28T21:21:40.047Z,96939.19
2023-04-28T21:24:08.216Z,96934.69
2023-04-28T21:26:36.071Z,96930.38
2023-04-28T21:29:03.200Z,96936.69
2023-04-28T21:31:30.886Z,96931.53
2023-04-28T21:33:58.012Z,96936.03
2023-04-28T21:36:24.892Z,96937.03
2023-04-28T21:38:52.062Z,96940.50
2023-04-28T21:41:18.838Z,96934.38
2023-04-28T21:43:45.611Z,96939.69
2023-04-28T21:46:13.353Z,96935.19
2023-04-28T21:48:40.140Z,96935.03
2023-04-28T21:51:07.006Z,96944.00
2023-04-28T21:53:33.866Z,96941.34
2023-04-28T21:56:00.679Z,96955.78
2023-04-28T21:58:27.863Z,96949.31
2023-04-28T22:00:56.975Z,96948.31
2023-04-28T22:03:23.952Z,96949.13
2023-04-28T22:05:51.386Z,96956.28
2023-04-28T22:08:18.384Z,96950.13
2023-04-28T22:10:48.244Z,96963.41
2023-04-28T22:13:15.497Z,96950.31
2023-04-28T22:15:43.061Z,96954.78
2023-04-28T22:18:09.824Z,96943.34
2023-04-28T22:20:37.003Z,96950.31
2023-04-28T22:23:03.803Z,96947.66
2023-04-28T22:25:30.638Z,96940.34
2023-04-28T22:27:57.633Z,96937.84
2023-04-28T22:30:25.976Z,96934.19
2023-04-28T22:32:53.413Z,96928.88
2023-04-28T22:35:20.283Z,96935.03
2023-04-28T22:37:47.032Z,96932.53
2023-04-28T22:40:13.989Z,96933.88
2023-04-28T22:42:42.274Z,96936.84
2023-04-28T22:45:10.586Z,96938.69
2023-04-28T22:47:39.001Z,96929.72
2023-04-28T22:50:08.153Z,96929.72
2023-04-28T22:52:35.283Z,96924.41
2023-04-28T22:55:02.423Z,96928.72
2023-04-28T22:57:29.222Z,96927.06
2023-04-28T22:59:56.242Z,96922.91
2023-04-28T23:02:23.540Z,96923.09
2023-04-28T23:04:51.307Z,96918.44
2023-04-28T23:07:18.332Z,96916.59
2023-04-28T23:09:45.021Z,96914.78
2023-04-28T23:12:11.857Z,96913.13
2023-04-28T23:14:38.706Z,96902.50
2023-04-28T23:17:05.831Z,96913.13
2023-04-28T23:19:32.609Z,96901.66
2023-04-28T23:21:59.328Z,96915.59
2023-04-28T23:24:27.459Z,96913.13
2023-04-28T23:26:54.326Z,96910.28
2023-04-28T23:29:21.050Z,96920.91
2023-04-28T23:31:52.713Z,96913.78
2023-04-28T23:34:19.577Z,96914.78
2023-04-28T23:36:46.467Z,96912.78
2023-04-28T23:39:13.728Z,96919.91
2023-04-28T23:41:41.252Z,96911.13
2023-04-28T23:44:08.540Z,96910.47
2023-04-28T23:46:35.326Z,96901.50
2023-04-28T23:49:02.084Z,96903.50
2023-04-28T23:51:29.029Z,96905.97
2023-04-28T23:53:56.086Z,96899.84
2023-04-28T23:56:22.828Z,96895.34
2023-04-28T23:58:49.564Z,96894.69
